sensor_id;sensor_type;location;lat;lon;timestamp;temperature;humidity
9527;DHT22;4802;51.494;6.770;2022-11-21T00:00:04;4.80;99.90
9527;DHT22;4802;51.494;6.770;2022-11-21T00:02:34;4.80;99.90
9527;DHT22;4802;51.494;6.770;2022-11-21T00:05:04;4.70;99.90
9527;DHT22;4802;51.494;6.770;2022-11-21T00:07:35;4.70;99.90
9527;DHT22;4802;51.494;6.770;2022-11-21T00:10:05;4.70;99.90
9527;DHT22;4802;51.494;6.770;2022-11-21T00:12:34;4.70;99.90
9527;DHT22;4802;51.494;6.770;2022-11-21T00:15:04;4.60;99.90
9527;DHT22;4802;51.494;6.770;2022-11-21T00:17:33;4.70;99.90
9527;DHT22;4802;51.494;6.770;2022-11-21T00:20:03;4.70;99.90
9527;DHT22;4802;51.494;6.770;2022-11-21T00:22:32;4.60;99.90
9527;DHT22;4802;51.494;6.770;2022-11-21T00:25:03;4.70;99.90
9527;DHT22;4802;51.494;6.770;2022-11-21T00:27:32;4.60;99.90
9527;DHT22;4802;51.494;6.770;2022-11-21T00:30:04;4.60;99.90
9527;DHT22;4802;51.494;6.770;2022-11-21T00:32:33;4.60;99.90
9527;DHT22;4802;51.494;6.770;2022-11-21T00:35:03;4.60;99.90
9527;DHT22;4802;51.494;6.770;2022-11-21T00:37:34;4.70;99.90
9527;DHT22;4802;51.494;6.770;2022-11-21T00:40:06;4.60;99.90
9527;DHT22;4802;51.494;6.770;2022-11-21T00:42:35;4.60;99.90
9527;DHT22;4802;51.494;6.770;2022-11-21T00:45:05;4.60;99.90
9527;DHT22;4802;51.494;6.770;2022-11-21T00:47:34;4.60;99.90
9527;DHT22;4802;51.494;6.770;2022-11-21T00:50:06;4.50;99.90
9527;DHT22;4802;51.494;6.770;2022-11-21T00:52:35;3.30;99.90
9527;DHT22;4802;51.494;6.770;2022-11-21T00:55:06;4.50;99.90
9527;DHT22;4802;51.494;6.770;2022-11-21T00:57:35;4.10;99.90
9527;DHT22;4802;51.494;6.770;2022-11-21T01:00:08;4.50;99.90
9527;DHT22;4802;51.494;6.770;2022-11-21T01:02:37;4.50;99.90
9527;DHT22;4802;51.494;6.770;2022-11-21T01:05:07;4.50;99.90
9527;DHT22;4802;51.494;6.770;2022-11-21T01:07:37;4.50;99.90
9527;DHT22;4802;51.494;6.770;2022-11-21T01:10:08;4.40;99.90
9527;DHT22;4802;51.494;6.770;2022-11-21T01:12:37;4.40;99.90
9527;DHT22;4802;51.494;6.770;2022-11-21T01:15:07;4.60;99.90
9527;DHT22;4802;51.494;6.770;2022-11-21T01:17:36;4.40;99.90
9527;DHT22;4802;51.494;6.770;2022-11-21T01:20:07;4.40;99.90
9527;DHT22;4802;51.494;6.770;2022-11-21T01:22:36;4.40;99.90
9527;DHT22;4802;51.494;6.770;2022-11-21T01:25:22;4.40;99.90
9527;DHT22;4802;51.494;6.770;2022-11-21T01:28:13;4.40;99.90
9527;DHT22;4802;51.494;6.770;2022-11-21T01:30:43;4.40;99.90
9527;DHT22;4802;51.494;6.770;2022-11-21T01:33:12;4.40;99.90
9527;DHT22;4802;51.494;6.770;2022-11-21T01:35:41;4.30;99.90
9527;DHT22;4802;51.494;6.770;2022-11-21T01:38:10;4.40;99.90
9527;DHT22;4802;51.494;6.770;2022-11-21T01:40:42;4.40;99.90
9527;DHT22;4802;51.494;6.770;2022-11-21T01:43:13;4.40;99.90
9527;DHT22;4802;51.494;6.770;2022-11-21T01:45:53;4.40;99.90
9527;DHT22;4802;51.494;6.770;2022-11-21T01:48:26;4.40;99.90
9527;DHT22;4802;51.494;6.770;2022-11-21T01:50:59;4.50;99.90
9527;DHT22;4802;51.494;6.770;2022-11-21T01:53:31;4.40;99.90
9527;DHT22;4802;51.494;6.770;2022-11-21T01:56:03;4.40;99.90
9527;DHT22;4802;51.494;6.770;2022-11-21T01:58:34;4.40;99.90
9527;DHT22;4802;51.494;6.770;2022-11-21T02:01:05;4.40;99.90
9527;DHT22;4802;51.494;6.770;2022-11-21T02:03:36;4.40;99.90
9527;DHT22;4802;51.494;6.770;2022-11-21T02:06:09;4.30;99.90
9527;DHT22;4802;51.494;6.770;2022-11-21T02:08:42;4.30;99.90
9527;DHT22;4802;51.494;6.770;2022-11-21T02:11:18;4.30;99.90
9527;DHT22;4802;51.494;6.770;2022-11-21T02:13:49;4.30;99.90
9527;DHT22;4802;51.494;6.770;2022-11-21T02:16:20;4.20;99.90
9527;DHT22;4802;51.494;6.770;2022-11-21T02:18:49;4.20;99.90
9527;DHT22;4802;51.494;6.770;2022-11-21T02:21:31;4.20;99.90
9527;DHT22;4802;51.494;6.770;2022-11-21T02:24:04;3.80;99.90
9527;DHT22;4802;51.494;6.770;2022-11-21T02:26:37;4.20;99.90
9527;DHT22;4802;51.494;6.770;2022-11-21T02:29:06;4.20;99.90
9527;DHT22;4802;51.494;6.770;2022-11-21T02:31:35;4.70;99.90
9527;DHT22;4802;51.494;6.770;2022-11-21T02:34:04;4.20;99.90
9527;DHT22;4802;51.494;6.770;2022-11-21T02:36:40;4.20;99.90
9527;DHT22;4802;51.494;6.770;2022-11-21T02:39:14;4.20;99.90
9527;DHT22;4802;51.494;6.770;2022-11-21T02:41:50;4.20;99.90
9527;DHT22;4802;51.494;6.770;2022-11-21T02:44:25;4.20;99.90
9527;DHT22;4802;51.494;6.770;2022-11-21T02:46:55;4.30;99.90
9527;DHT22;4802;51.494;6.770;2022-11-21T02:49:37;4.30;99.90
9527;DHT22;4802;51.494;6.770;2022-11-21T02:52:08;4.20;99.90
9527;DHT22;4802;51.494;6.770;2022-11-21T02:54:37;4.20;99.90
9527;DHT22;4802;51.494;6.770;2022-11-21T02:57:08;4.10;99.90
9527;DHT22;4802;51.494;6.770;2022-11-21T02:59:37;4.10;99.90
9527;DHT22;4802;51.494;6.770;2022-11-21T03:02:06;4.00;99.90
9527;DHT22;4802;51.494;6.770;2022-11-21T03:04:36;4.10;99.90
9527;DHT22;4802;51.494;6.770;2022-11-21T03:07:05;4.00;99.90
9527;DHT22;4802;51.494;6.770;2022-11-21T03:09:34;4.10;99.90
9527;DHT22;4802;51.494;6.770;2022-11-21T03:12:08;4.10;99.90
9527;DHT22;4802;51.494;6.770;2022-11-21T03:14:37;4.00;99.90
9527;DHT22;4802;51.494;6.770;2022-11-21T03:17:06;4.10;99.90
9527;DHT22;4802;51.494;6.770;2022-11-21T03:19:36;4.10;99.90
9527;DHT22;4802;51.494;6.770;2022-11-21T03:22:06;4.00;99.90
9527;DHT22;4802;51.494;6.770;2022-11-21T03:24:35;4.00;99.90
9527;DHT22;4802;51.494;6.770;2022-11-21T03:27:04;4.00;99.90
9527;DHT22;4802;51.494;6.770;2022-11-21T03:29:37;4.00;99.90
9527;DHT22;4802;51.494;6.770;2022-11-21T03:32:09;4.00;99.90
9527;DHT22;4802;51.494;6.770;2022-11-21T03:34:39;4.00;99.90
9527;DHT22;4802;51.494;6.770;2022-11-21T03:37:08;4.10;99.90
9527;DHT22;4802;51.494;6.770;2022-11-21T03:39:37;4.10;99.90
9527;DHT22;4802;51.494;6.770;2022-11-21T03:42:06;4.10;99.90
9527;DHT22;4802;51.494;6.770;2022-11-21T03:44:36;4.10;99.90
9527;DHT22;4802;51.494;6.770;2022-11-21T03:47:05;4.10;99.90
9527;DHT22;4802;51.494;6.770;2022-11-21T03:49:34;4.10;99.90
9527;DHT22;4802;51.494;6.770;2022-11-21T03:52:05;4.70;99.90
9527;DHT22;4802;51.494;6.770;2022-11-21T03:54:35;4.10;99.90
9527;DHT22;4802;51.494;6.770;2022-11-21T03:57:04;4.20;99.90
9527;DHT22;4802;51.494;6.770;2022-11-21T03:59:33;4.20;99.90
9527;DHT22;4802;51.494;6.770;2022-11-21T04:02:05;4.20;99.90
9527;DHT22;4802;51.494;6.770;2022-11-21T04:04:35;4.20;99.90
9527;DHT22;4802;51.494;6.770;2022-11-21T04:07:03;4.20;99.90
9527;DHT22;4802;51.494;6.770;2022-11-21T04:09:32;4.30;99.90
9527;DHT22;4802;51.494;6.770;2022-11-21T04:12:03;4.20;99.90
9527;DHT22;4802;51.494;6.770;2022-11-21T04:14:34;4.20;99.90
9527;DHT22;4802;51.494;6.770;2022-11-21T04:17:02;4.20;99.90
9527;DHT22;4802;51.494;6.770;2022-11-21T04:19:33;4.20;99.90
9527;DHT22;4802;51.494;6.770;2022-11-21T04:22:03;4.10;99.90
9527;DHT22;4802;51.494;6.770;2022-11-21T04:24:32;4.10;99.90
9527;DHT22;4802;51.494;6.770;2022-11-21T04:27:02;4.10;99.90
9527;DHT22;4802;51.494;6.770;2022-11-21T04:29:34;4.10;99.90
9527;DHT22;4802;51.494;6.770;2022-11-21T04:32:04;4.10;99.90
9527;DHT22;4802;51.494;6.770;2022-11-21T04:34:35;4.10;99.90
9527;DHT22;4802;51.494;6.770;2022-11-21T04:37:06;3.90;99.90
9527;DHT22;4802;51.494;6.770;2022-11-21T04:39:37;4.20;99.90
9527;DHT22;4802;51.494;6.770;2022-11-21T04:42:08;4.20;99.90
9527;DHT22;4802;51.494;6.770;2022-11-21T04:44:37;4.20;99.90
9527;DHT22;4802;51.494;6.770;2022-11-21T04:47:05;4.20;99.90
9527;DHT22;4802;51.494;6.770;2022-11-21T04:49:37;4.20;99.90
9527;DHT22;4802;51.494;6.770;2022-11-21T04:52:06;4.40;99.90
9527;DHT22;4802;51.494;6.770;2022-11-21T04:54:36;4.50;99.90
9527;DHT22;4802;51.494;6.770;2022-11-21T04:57:07;5.80;99.90
9527;DHT22;4802;51.494;6.770;2022-11-21T04:59:37;5.40;99.90
9527;DHT22;4802;51.494;6.770;2022-11-21T05:02:06;5.10;99.90
9527;DHT22;4802;51.494;6.770;2022-11-21T05:04:38;4.80;99.90
9527;DHT22;4802;51.494;6.770;2022-11-21T05:07:07;4.80;99.90
9527;DHT22;4802;51.494;6.770;2022-11-21T05:09:36;4.60;99.90
9527;DHT22;4802;51.494;6.770;2022-11-21T05:12:06;4.60;99.90
9527;DHT22;4802;51.494;6.770;2022-11-21T05:14:52;4.50;99.90
9527;DHT22;4802;51.494;6.770;2022-11-21T05:17:22;4.40;99.90
9527;DHT22;4802;51.494;6.770;2022-11-21T05:19:53;4.40;99.90
9527;DHT22;4802;51.494;6.770;2022-11-21T05:22:21;4.40;99.90
9527;DHT22;4802;51.494;6.770;2022-11-21T05:24:52;4.50;99.90
9527;DHT22;4802;51.494;6.770;2022-11-21T05:27:21;4.50;99.90
9527;DHT22;4802;51.494;6.770;2022-11-21T05:29:51;4.40;99.90
9527;DHT22;4802;51.494;6.770;2022-11-21T05:32:20;4.30;99.90
9527;DHT22;4802;51.494;6.770;2022-11-21T05:34:49;4.40;99.90
9527;DHT22;4802;51.494;6.770;2022-11-21T05:37:22;4.40;99.90
9527;DHT22;4802;51.494;6.770;2022-11-21T05:39:52;4.70;99.90
9527;DHT22;4802;51.494;6.770;2022-11-21T05:42:25;4.40;99.90
9527;DHT22;4802;51.494;6.770;2022-11-21T05:45:09;4.00;99.90
9527;DHT22;4802;51.494;6.770;2022-11-21T05:47:40;4.40;99.90
9527;DHT22;4802;51.494;6.770;2022-11-21T05:50:09;4.40;99.90
9527;DHT22;4802;51.494;6.770;2022-11-21T05:52:41;4.30;99.90
9527;DHT22;4802;51.494;6.770;2022-11-21T05:55:10;4.40;99.90
9527;DHT22;4802;51.494;6.770;2022-11-21T05:57:39;4.40;99.90
9527;DHT22;4802;51.494;6.770;2022-11-21T06:00:09;4.00;99.90
9527;DHT22;4802;51.494;6.770;2022-11-21T06:02:40;4.80;99.90
9527;DHT22;4802;51.494;6.770;2022-11-21T06:05:26;4.40;99.90
9527;DHT22;4802;51.494;6.770;2022-11-21T06:07:57;4.50;99.90
9527;DHT22;4802;51.494;6.770;2022-11-21T06:10:27;4.90;99.90
9527;DHT22;4802;51.494;6.770;2022-11-21T06:12:58;4.40;99.90
9527;DHT22;4802;51.494;6.770;2022-11-21T06:15:28;4.40;99.90
9527;DHT22;4802;51.494;6.770;2022-11-21T06:17:59;4.50;99.90
9527;DHT22;4802;51.494;6.770;2022-11-21T06:20:28;4.50;99.90
9527;DHT22;4802;51.494;6.770;2022-11-21T06:22:59;4.70;99.90
9527;DHT22;4802;51.494;6.770;2022-11-21T06:25:28;4.60;99.90
9527;DHT22;4802;51.494;6.770;2022-11-21T06:27:59;4.50;99.90
9527;DHT22;4802;51.494;6.770;2022-11-21T06:30:31;4.80;99.90
9527;DHT22;4802;51.494;6.770;2022-11-21T06:33:02;4.60;99.90
9527;DHT22;4802;51.494;6.770;2022-11-21T06:35:35;4.50;99.90
9527;DHT22;4802;51.494;6.770;2022-11-21T06:38:09;4.50;99.90
9527;DHT22;4802;51.494;6.770;2022-11-21T06:40:41;4.50;99.90
9527;DHT22;4802;51.494;6.770;2022-11-21T06:43:13;4.50;99.90
9527;DHT22;4802;51.494;6.770;2022-11-21T06:45:56;4.50;99.90
9527;DHT22;4802;51.494;6.770;2022-11-21T06:48:41;4.60;99.90
9527;DHT22;4802;51.494;6.770;2022-11-21T06:51:17;4.50;99.90
9527;DHT22;4802;51.494;6.770;2022-11-21T06:53:52;4.60;99.90
9527;DHT22;4802;51.494;6.770;2022-11-21T06:56:22;4.60;99.90
9527;DHT22;4802;51.494;6.770;2022-11-21T06:58:52;4.60;99.90
9527;DHT22;4802;51.494;6.770;2022-11-21T07:01:22;4.50;99.90
9527;DHT22;4802;51.494;6.770;2022-11-21T07:03:57;4.50;99.90
9527;DHT22;4802;51.494;6.770;2022-11-21T07:06:27;4.50;99.90
9527;DHT22;4802;51.494;6.770;2022-11-21T07:08:59;4.60;99.90
9527;DHT22;4802;51.494;6.770;2022-11-21T07:11:55;4.60;99.90
9527;DHT22;4802;51.494;6.770;2022-11-21T07:14:52;5.20;99.90
9527;DHT22;4802;51.494;6.770;2022-11-21T07:17:21;5.00;99.90
9527;DHT22;4802;51.494;6.770;2022-11-21T07:19:57;4.80;99.90
9527;DHT22;4802;51.494;6.770;2022-11-21T07:22:29;4.80;99.90
9527;DHT22;4802;51.494;6.770;2022-11-21T07:25:03;4.60;99.90
9527;DHT22;4802;51.494;6.770;2022-11-21T07:27:32;4.90;99.90
9527;DHT22;4802;51.494;6.770;2022-11-21T07:30:02;4.90;99.90
9527;DHT22;4802;51.494;6.770;2022-11-21T07:32:35;4.80;99.90
9527;DHT22;4802;51.494;6.770;2022-11-21T07:35:05;4.80;99.90
9527;DHT22;4802;51.494;6.770;2022-11-21T07:37:37;4.80;99.90
9527;DHT22;4802;51.494;6.770;2022-11-21T07:40:10;4.80;99.90
9527;DHT22;4802;51.494;6.770;2022-11-21T07:42:40;4.30;99.90
9527;DHT22;4802;51.494;6.770;2022-11-21T07:45:18;4.80;99.90
9527;DHT22;4802;51.494;6.770;2022-11-21T07:48:02;4.50;99.90
9527;DHT22;4802;51.494;6.770;2022-11-21T07:50:39;4.90;99.90
9527;DHT22;4802;51.494;6.770;2022-11-21T07:53:35;4.80;99.90
9527;DHT22;4802;51.494;6.770;2022-11-21T07:59:17;5.00;99.90
9527;DHT22;4802;51.494;6.770;2022-11-21T08:01:51;5.00;99.90
9527;DHT22;4802;51.494;6.770;2022-11-21T08:04:33;5.00;99.90
9527;DHT22;4802;51.494;6.770;2022-11-21T08:07:05;4.30;99.90
9527;DHT22;4802;51.494;6.770;2022-11-21T08:09:37;5.00;99.90
9527;DHT22;4802;51.494;6.770;2022-11-21T08:12:11;5.00;99.90
9527;DHT22;4802;51.494;6.770;2022-11-21T08:14:52;5.00;99.90
9527;DHT22;4802;51.494;6.770;2022-11-21T08:17:29;5.00;99.90
9527;DHT22;4802;51.494;6.770;2022-11-21T08:20:03;5.10;99.90
9527;DHT22;4802;51.494;6.770;2022-11-21T08:22:37;5.10;99.90
9527;DHT22;4802;51.494;6.770;2022-11-21T08:25:18;5.10;99.90
9527;DHT22;4802;51.494;6.770;2022-11-21T08:27:51;5.40;99.90
9527;DHT22;4802;51.494;6.770;2022-11-21T08:30:31;5.10;99.90
9527;DHT22;4802;51.494;6.770;2022-11-21T08:33:05;5.40;99.90
9527;DHT22;4802;51.494;6.770;2022-11-21T08:35:37;5.20;99.90
9527;DHT22;4802;51.494;6.770;2022-11-21T08:38:13;5.20;99.90
9527;DHT22;4802;51.494;6.770;2022-11-21T08:40:55;4.90;99.90
9527;DHT22;4802;51.494;6.770;2022-11-21T08:43:44;5.00;99.90
9527;DHT22;4802;51.494;6.770;2022-11-21T08:46:16;5.30;99.90
9527;DHT22;4802;51.494;6.770;2022-11-21T08:49:08;5.40;99.90
9527;DHT22;4802;51.494;6.770;2022-11-21T08:51:45;5.40;99.90
9527;DHT22;4802;51.494;6.770;2022-11-21T08:54:20;5.10;99.90
9527;DHT22;4802;51.494;6.770;2022-11-21T08:57:22;5.40;99.90
9527;DHT22;4802;51.494;6.770;2022-11-21T08:59:53;5.40;99.90
9527;DHT22;4802;51.494;6.770;2022-11-21T09:02:24;5.50;99.90
9527;DHT22;4802;51.494;6.770;2022-11-21T09:04:54;5.50;99.90
9527;DHT22;4802;51.494;6.770;2022-11-21T09:07:26;5.70;99.90
9527;DHT22;4802;51.494;6.770;2022-11-21T09:09:57;5.60;99.90
9527;DHT22;4802;51.494;6.770;2022-11-21T09:12:30;5.60;99.90
9527;DHT22;4802;51.494;6.770;2022-11-21T09:14:59;5.60;99.90
9527;DHT22;4802;51.494;6.770;2022-11-21T09:17:45;5.60;99.90
9527;DHT22;4802;51.494;6.770;2022-11-21T09:20:38;5.70;99.90
9527;DHT22;4802;51.494;6.770;2022-11-21T09:23:10;5.70;99.90
9527;DHT22;4802;51.494;6.770;2022-11-21T09:25:41;5.70;99.90
9527;DHT22;4802;51.494;6.770;2022-11-21T09:28:13;5.80;99.90
9527;DHT22;4802;51.494;6.770;2022-11-21T09:30:44;6.30;99.90
9527;DHT22;4802;51.494;6.770;2022-11-21T09:33:15;5.60;99.90
9527;DHT22;4802;51.494;6.770;2022-11-21T09:35:45;5.90;99.90
9527;DHT22;4802;51.494;6.770;2022-11-21T09:38:16;5.90;99.90
9527;DHT22;4802;51.494;6.770;2022-11-21T09:40:51;6.00;99.90
9527;DHT22;4802;51.494;6.770;2022-11-21T09:43:34;6.10;99.90
9527;DHT22;4802;51.494;6.770;2022-11-21T09:46:11;6.10;99.90
9527;DHT22;4802;51.494;6.770;2022-11-21T09:48:47;6.10;99.90
9527;DHT22;4802;51.494;6.770;2022-11-21T09:51:21;6.20;99.90
9527;DHT22;4802;51.494;6.770;2022-11-21T09:53:56;6.20;99.90
9527;DHT22;4802;51.494;6.770;2022-11-21T09:56:37;6.30;99.90
9527;DHT22;4802;51.494;6.770;2022-11-21T09:59:24;6.30;99.90
9527;DHT22;4802;51.494;6.770;2022-11-21T10:01:57;6.60;99.90
9527;DHT22;4802;51.494;6.770;2022-11-21T10:04:27;6.70;99.90
9527;DHT22;4802;51.494;6.770;2022-11-21T10:07:03;6.70;99.90
9527;DHT22;4802;51.494;6.770;2022-11-21T10:09:46;6.80;99.90
9527;DHT22;4802;51.494;6.770;2022-11-21T10:12:26;6.90;99.90
9527;DHT22;4802;51.494;6.770;2022-11-21T10:15:28;6.90;99.90
9527;DHT22;4802;51.494;6.770;2022-11-21T10:18:13;7.00;99.90
9527;DHT22;4802;51.494;6.770;2022-11-21T10:20:53;7.20;99.90
9527;DHT22;4802;51.494;6.770;2022-11-21T10:23:53;7.30;99.90
9527;DHT22;4802;51.494;6.770;2022-11-21T10:26:39;7.40;99.90
9527;DHT22;4802;51.494;6.770;2022-11-21T10:29:15;7.40;99.90
9527;DHT22;4802;51.494;6.770;2022-11-21T10:31:49;7.40;99.90
9527;DHT22;4802;51.494;6.770;2022-11-21T10:34:23;7.40;99.90
9527;DHT22;4802;51.494;6.770;2022-11-21T10:36:57;7.40;99.90
9527;DHT22;4802;51.494;6.770;2022-11-21T10:39:34;7.40;99.90
9527;DHT22;4802;51.494;6.770;2022-11-21T10:42:14;7.40;99.90
9527;DHT22;4802;51.494;6.770;2022-11-21T10:44:58;7.40;99.90
9527;DHT22;4802;51.494;6.770;2022-11-21T10:47:58;7.50;99.90
9527;DHT22;4802;51.494;6.770;2022-11-21T10:50:41;7.50;99.90
9527;DHT22;4802;51.494;6.770;2022-11-21T10:53:25;7.60;99.90
9527;DHT22;4802;51.494;6.770;2022-11-21T10:56:16;7.70;99.90
9527;DHT22;4802;51.494;6.770;2022-11-21T10:58:49;8.00;99.90
9527;DHT22;4802;51.494;6.770;2022-11-21T11:01:22;8.10;99.90
9527;DHT22;4802;51.494;6.770;2022-11-21T11:04:18;8.20;99.90
9527;DHT22;4802;51.494;6.770;2022-11-21T11:07:21;8.20;99.90
9527;DHT22;4802;51.494;6.770;2022-11-21T11:10:14;8.10;99.90
9527;DHT22;4802;51.494;6.770;2022-11-21T11:12:51;8.00;99.90
9527;DHT22;4802;51.494;6.770;2022-11-21T11:16:03;8.00;99.90
9527;DHT22;4802;51.494;6.770;2022-11-21T11:18:38;7.90;99.90
9527;DHT22;4802;51.494;6.770;2022-11-21T11:21:15;7.90;99.90
9527;DHT22;4802;51.494;6.770;2022-11-21T11:23:46;7.90;99.90
9527;DHT22;4802;51.494;6.770;2022-11-21T11:26:24;7.90;99.90
9527;DHT22;4802;51.494;6.770;2022-11-21T11:29:14;7.50;99.90
9527;DHT22;4802;51.494;6.770;2022-11-21T11:31:50;7.90;99.90
9527;DHT22;4802;51.494;6.770;2022-11-21T11:34:22;8.00;99.90
9527;DHT22;4802;51.494;6.770;2022-11-21T11:37:04;8.10;99.90
9527;DHT22;4802;51.494;6.770;2022-11-21T11:39:40;8.10;99.90
9527;DHT22;4802;51.494;6.770;2022-11-21T11:42:47;8.10;99.90
9527;DHT22;4802;51.494;6.770;2022-11-21T11:49:08;8.10;99.90
9527;DHT22;4802;51.494;6.770;2022-11-21T11:52:03;8.10;99.90
9527;DHT22;4802;51.494;6.770;2022-11-21T11:54:38;8.00;99.90
9527;DHT22;4802;51.494;6.770;2022-11-21T11:57:08;8.10;99.90
9527;DHT22;4802;51.494;6.770;2022-11-21T11:59:40;8.10;99.90
9527;DHT22;4802;51.494;6.770;2022-11-21T12:02:18;8.10;99.90
9527;DHT22;4802;51.494;6.770;2022-11-21T12:04:52;8.00;99.90
9527;DHT22;4802;51.494;6.770;2022-11-21T12:07:30;8.10;99.90
9527;DHT22;4802;51.494;6.770;2022-11-21T12:10:26;8.10;99.90
9527;DHT22;4802;51.494;6.770;2022-11-21T12:13:03;8.10;99.90
9527;DHT22;4802;51.494;6.770;2022-11-21T12:15:39;8.10;99.90
9527;DHT22;4802;51.494;6.770;2022-11-21T12:18:25;8.10;99.90
9527;DHT22;4802;51.494;6.770;2022-11-21T12:21:03;8.20;99.90
9527;DHT22;4802;51.494;6.770;2022-11-21T12:23:39;8.30;99.90
9527;DHT22;4802;51.494;6.770;2022-11-21T12:26:20;8.30;99.90
9527;DHT22;4802;51.494;6.770;2022-11-21T12:29:08;8.50;99.90
9527;DHT22;4802;51.494;6.770;2022-11-21T12:32:00;8.50;99.90
9527;DHT22;4802;51.494;6.770;2022-11-21T12:34:42;8.60;99.90
9527;DHT22;4802;51.494;6.770;2022-11-21T12:37:23;8.60;99.90
9527;DHT22;4802;51.494;6.770;2022-11-21T12:40:08;8.60;99.90
9527;DHT22;4802;51.494;6.770;2022-11-21T12:42:53;8.60;99.90
9527;DHT22;4802;51.494;6.770;2022-11-21T12:45:30;8.30;99.90
9527;DHT22;4802;51.494;6.770;2022-11-21T12:48:13;8.60;99.90
9527;DHT22;4802;51.494;6.770;2022-11-21T12:51:20;8.60;99.90
9527;DHT22;4802;51.494;6.770;2022-11-21T12:54:22;8.60;99.90
9527;DHT22;4802;51.494;6.770;2022-11-21T12:57:08;8.60;99.90
9527;DHT22;4802;51.494;6.770;2022-11-21T12:59:56;8.50;99.90
9527;DHT22;4802;51.494;6.770;2022-11-21T13:02:37;8.50;99.90
9527;DHT22;4802;51.494;6.770;2022-11-21T13:05:25;8.40;99.90
9527;DHT22;4802;51.494;6.770;2022-11-21T13:07:59;8.30;99.90
9527;DHT22;4802;51.494;6.770;2022-11-21T13:10:31;8.30;99.90
9527;DHT22;4802;51.494;6.770;2022-11-21T13:13:12;8.20;99.90
9527;DHT22;4802;51.494;6.770;2022-11-21T13:15:47;8.50;99.90
9527;DHT22;4802;51.494;6.770;2022-11-21T13:18:27;8.10;99.90
9527;DHT22;4802;51.494;6.770;2022-11-21T13:21:08;8.30;99.90
9527;DHT22;4802;51.494;6.770;2022-11-21T13:23:51;8.30;99.90
9527;DHT22;4802;51.494;6.770;2022-11-21T13:26:44;8.40;99.90
9527;DHT22;4802;51.494;6.770;2022-11-21T13:29:18;8.40;99.90
9527;DHT22;4802;51.494;6.770;2022-11-21T13:31:47;8.90;99.90
9527;DHT22;4802;51.494;6.770;2022-11-21T13:34:36;8.40;99.90
9527;DHT22;4802;51.494;6.770;2022-11-21T13:37:09;8.50;99.90
9527;DHT22;4802;51.494;6.770;2022-11-21T13:40:34;8.50;99.90
9527;DHT22;4802;51.494;6.770;2022-11-21T13:43:22;8.40;99.90
9527;DHT22;4802;51.494;6.770;2022-11-21T13:46:05;8.50;99.90
9527;DHT22;4802;51.494;6.770;2022-11-21T13:49:01;8.50;99.90
9527;DHT22;4802;51.494;6.770;2022-11-21T13:51:55;8.50;99.90
9527;DHT22;4802;51.494;6.770;2022-11-21T13:57:58;8.50;99.90
9527;DHT22;4802;51.494;6.770;2022-11-21T14:00:53;8.50;99.90
9527;DHT22;4802;51.494;6.770;2022-11-21T14:06:33;8.50;99.90
9527;DHT22;4802;51.494;6.770;2022-11-21T14:09:21;8.50;99.90
9527;DHT22;4802;51.494;6.770;2022-11-21T14:11:53;8.50;99.90
9527;DHT22;4802;51.494;6.770;2022-11-21T14:14:33;8.50;99.90
9527;DHT22;4802;51.494;6.770;2022-11-21T14:17:18;8.50;99.90
9527;DHT22;4802;51.494;6.770;2022-11-21T14:19:55;8.40;99.90
9527;DHT22;4802;51.494;6.770;2022-11-21T14:22:26;8.30;99.90
9527;DHT22;4802;51.494;6.770;2022-11-21T14:25:07;8.30;99.90
9527;DHT22;4802;51.494;6.770;2022-11-21T14:27:45;8.30;99.90
9527;DHT22;4802;51.494;6.770;2022-11-21T14:30:33;8.20;99.90
9527;DHT22;4802;51.494;6.770;2022-11-21T14:33:26;8.20;99.90
9527;DHT22;4802;51.494;6.770;2022-11-21T14:36:05;8.20;99.90
9527;DHT22;4802;51.494;6.770;2022-11-21T14:38:42;8.10;99.90
9527;DHT22;4802;51.494;6.770;2022-11-21T14:41:32;8.10;99.90
9527;DHT22;4802;51.494;6.770;2022-11-21T14:44:15;8.10;99.90
9527;DHT22;4802;51.494;6.770;2022-11-21T14:47:02;8.10;99.90
9527;DHT22;4802;51.494;6.770;2022-11-21T14:49:47;8.10;99.90
9527;DHT22;4802;51.494;6.770;2022-11-21T14:52:26;8.00;99.90
9527;DHT22;4802;51.494;6.770;2022-11-21T14:54:58;8.00;99.90
9527;DHT22;4802;51.494;6.770;2022-11-21T14:57:58;7.90;99.90
9527;DHT22;4802;51.494;6.770;2022-11-21T15:00:29;7.90;99.90
9527;DHT22;4802;51.494;6.770;2022-11-21T15:03:20;7.80;99.90
9527;DHT22;4802;51.494;6.770;2022-11-21T15:06:11;7.80;99.90
9527;DHT22;4802;51.494;6.770;2022-11-21T15:08:42;7.70;99.90
9527;DHT22;4802;51.494;6.770;2022-11-21T15:11:38;7.70;99.90
9527;DHT22;4802;51.494;6.770;2022-11-21T15:14:20;7.70;99.90
9527;DHT22;4802;51.494;6.770;2022-11-21T15:16:52;7.60;99.90
9527;DHT22;4802;51.494;6.770;2022-11-21T15:19:27;7.60;99.90
9527;DHT22;4802;51.494;6.770;2022-11-21T15:22:01;7.60;99.90
9527;DHT22;4802;51.494;6.770;2022-11-21T15:24:39;7.50;99.90
9527;DHT22;4802;51.494;6.770;2022-11-21T15:27:30;7.50;99.90
9527;DHT22;4802;51.494;6.770;2022-11-21T15:30:26;7.50;99.90
9527;DHT22;4802;51.494;6.770;2022-11-21T15:32:59;7.50;99.90
9527;DHT22;4802;51.494;6.770;2022-11-21T15:35:47;7.50;99.90
9527;DHT22;4802;51.494;6.770;2022-11-21T15:38:23;7.10;99.90
9527;DHT22;4802;51.494;6.770;2022-11-21T15:41:39;7.40;99.90
9527;DHT22;4802;51.494;6.770;2022-11-21T15:44:24;7.40;99.90
9527;DHT22;4802;51.494;6.770;2022-11-21T15:46:55;7.40;99.90
9527;DHT22;4802;51.494;6.770;2022-11-21T15:49:39;7.40;99.90
9527;DHT22;4802;51.494;6.770;2022-11-21T15:52:45;7.40;99.90
9527;DHT22;4802;51.494;6.770;2022-11-21T15:55:21;7.40;99.90
9527;DHT22;4802;51.494;6.770;2022-11-21T15:58:07;7.30;99.90
9527;DHT22;4802;51.494;6.770;2022-11-21T16:00:42;7.40;99.90
9527;DHT22;4802;51.494;6.770;2022-11-21T16:03:15;7.30;99.90
9527;DHT22;4802;51.494;6.770;2022-11-21T16:05:44;7.40;99.90
9527;DHT22;4802;51.494;6.770;2022-11-21T16:08:14;7.30;99.90
9527;DHT22;4802;51.494;6.770;2022-11-21T16:10:43;7.30;1.00
9527;DHT22;4802;51.494;6.770;2022-11-21T16:13:17;7.30;99.90
9527;DHT22;4802;51.494;6.770;2022-11-21T16:15:47;7.30;99.90
9527;DHT22;4802;51.494;6.770;2022-11-21T16:18:19;7.40;99.90
9527;DHT22;4802;51.494;6.770;2022-11-21T16:20:52;7.40;99.90
9527;DHT22;4802;51.494;6.770;2022-11-21T16:23:22;7.40;99.90
9527;DHT22;4802;51.494;6.770;2022-11-21T16:26:18;7.10;99.90
9527;DHT22;4802;51.494;6.770;2022-11-21T16:28:56;7.40;99.90
9527;DHT22;4802;51.494;6.770;2022-11-21T16:31:27;7.40;99.90
9527;DHT22;4802;51.494;6.770;2022-11-21T16:33:58;7.40;99.90
9527;DHT22;4802;51.494;6.770;2022-11-21T16:36:42;7.40;99.90
9527;DHT22;4802;51.494;6.770;2022-11-21T16:39:12;7.40;99.90
9527;DHT22;4802;51.494;6.770;2022-11-21T16:41:47;7.40;99.90
9527;DHT22;4802;51.494;6.770;2022-11-21T16:44:33;7.40;99.90
9527;DHT22;4802;51.494;6.770;2022-11-21T16:47:08;7.00;99.90
9527;DHT22;4802;51.494;6.770;2022-11-21T16:49:51;7.40;99.90
9527;DHT22;4802;51.494;6.770;2022-11-21T16:52:32;7.30;99.90
9527;DHT22;4802;51.494;6.770;2022-11-21T16:55:05;7.30;99.90
9527;DHT22;4802;51.494;6.770;2022-11-21T16:57:49;7.30;99.90
9527;DHT22;4802;51.494;6.770;2022-11-21T17:00:24;7.30;99.90
9527;DHT22;4802;51.494;6.770;2022-11-21T17:03:19;7.30;99.90
9527;DHT22;4802;51.494;6.770;2022-11-21T17:05:56;7.30;99.90
9527;DHT22;4802;51.494;6.770;2022-11-21T17:08:40;7.20;99.90
9527;DHT22;4802;51.494;6.770;2022-11-21T17:11:12;7.60;99.90
9527;DHT22;4802;51.494;6.770;2022-11-21T17:13:49;7.30;99.90
9527;DHT22;4802;51.494;6.770;2022-11-21T17:16:48;7.20;99.90
9527;DHT22;4802;51.494;6.770;2022-11-21T17:19:26;7.30;99.90
9527;DHT22;4802;51.494;6.770;2022-11-21T17:22:11;7.20;99.90
9527;DHT22;4802;51.494;6.770;2022-11-21T17:24:53;7.30;99.90
9527;DHT22;4802;51.494;6.770;2022-11-21T17:27:32;7.20;99.90
9527;DHT22;4802;51.494;6.770;2022-11-21T17:30:03;7.00;99.90